Nearby METAR Reports

 

EGUW - Wattisham Raf, United Kingdom
Distance from station: SW 12mi, 19km
Updated: 14/10/2019 16:50
Overcast
Overcast
 Wind from ESE
Wind: ESE 12 mph , 19 km/h
Temperature: 14°C
Dew Point: 13°C
Humidity: 94%
Barometer: 1003 hPa
Clouds: Overcast
Visibility: 6 miles , 10 km
Cloud details: Overcast 213 m
2019/10/14 15:50 EGUW 141550Z 11010KT 9999 OVC007 14/13 Q1003 TEMPO 3000 RADZ BKN005 RMK GRN TEMPO YLO1
EGUL - Lakenheath Raf, United Kingdom
Distance from station: WNW 29mi, 47km
Updated: 14/10/2019 16:56
Overcast
Overcast
 Wind from ESE
Wind: ESE 7 mph , 11 km/h
Temperature: 13°C
Dew Point: 13°C
Humidity: 100%
Barometer: 1003 hPa
Clouds: Overcast
Visibility: 6 miles , 10 km
Cloud details: Overcast 427 m
2019/10/14 15:56 EGUL 141556Z 12006KT 9999 OVC014 13/13 A2962 RMK AO2A SLP034 $
 
EGUN - Mildenhall Raf, United Kingdom
Distance from station: WNW 32mi, 51km
Updated: 14/10/2019 16:55
Overcast
Overcast
 Wind from ESE
Wind: ESE 10 mph , 17 km/h
Temperature: 13°C
Dew Point: 13°C
Humidity: 100%
Barometer: 1003 hPa
Clouds: Overcast
Visibility: 6 miles , 10 km
Cloud details: Overcast 396 m
2019/10/14 15:55 EGUN 141555Z 11009KT 9999 OVC013 13/13 A2962 RMK SLPNO WND DATA ESTMD ALSTG ESTMD RVRNO $
EGSH - Norwich Wea Cntr, United Kingdom
Distance from station: N 32mi, 52km
Updated: 14/10/2019 17:20
Mostly cloudy
Mostly cloudy
 Wind from E
Wind: E 8 mph , 13 km/h
Temperature: 13°C
Dew Point: 12°C
Humidity: 94%
Barometer: 1004 hPa
Clouds: Mostly cloudy
Visibility: 6 miles , 10 km
Cloud details: Mostly cloudy 335 m
2019/10/14 16:20 EGSH 141620Z 10007KT 9999 BKN011 13/12 Q1004
 
EGYM - Marham Raf, United Kingdom
Distance from station: NW 39mi, 62km
Updated: 14/10/2019 16:50
Light rain, Overcast
Light rain, Overcast
 Wind from ENE
Wind: ENE 7 mph , 11 km/h
Temperature: 12°C
Dew Point: 11°C
Humidity: 94%
Barometer: 1004 hPa
Summary: Light rain
Clouds: Overcast
Visibility: 6 miles , 10 km
Cloud details: Mostly cloudy 366 m
Overcast 762 m
2019/10/14 15:50 EGYM 141550Z 07006KT 9999 -RA BKN012 OVC025 12/11 Q1004 GRN TEMPO 7000 RA RMK GRN GRN
EGSC - Cambridge, United Kingdom
Distance from station: W 43mi, 69km
Updated: 14/10/2019 17:20
Mostly cloudy
Mostly cloudy
 Wind from ENE
Wind: ENE 6 mph , 9 km/h
Temperature: 13°C
Dew Point: 11°C
Humidity: 88%
Barometer: 1002 hPa
Clouds: Mostly cloudy
Visibility: 6 miles , 9 km
Cloud details: Mostly cloudy 274 m
2019/10/14 16:20 EGSC 141620Z 07005KT 030V110 9000 BKN009 13/11 Q1002
 
EGSS - Stansted Airport, United Kingdom
Distance from station: WSW 47mi, 76km
Updated: 14/10/2019 17:20
Overcast
Overcast
 Wind from E
Wind: E 9 mph , 15 km/h
Temperature: 14°C
Dew Point: 13°C
Humidity: 94%
Barometer: 1002 hPa
Clouds: Overcast
Visibility: 4 miles , 7 km
Cloud details: Mostly cloudy 152 m
Overcast 305 m
2019/10/14 16:20 EGSS 141620Z AUTO 09008KT 7000 BKN005 OVC010 14/13 Q1002
EGMC - Southend-On-Sea, United Kingdom
Distance from station: SSW 50mi, 80km
Updated: 14/10/2019 16:50
Mostly cloudy
Mostly cloudy
 Wind from ESE
Wind: ESE 13 mph , 20 km/h
Temperature: 15°C
Dew Point: 14°C
Humidity: 94%
Barometer: 1002 hPa
Clouds: Mostly cloudy
Visibility: 4 miles , 7 km
Cloud details: Few Clouds 457 m
Partly cloudy 792 m
Mostly cloudy 1097 m
2019/10/14 15:50 EGMC 141550Z 11011KT 7000 FEW015 SCT026 BKN036 15/14 Q1002